Accueil
METAR-TAF:

METAR-TAF

Aéroports :

Novare, Italie

Base aérienne Cameri

latitude: 45-31N, longitude: 008-40E, altitude: 178 m

Observation

Le bulletin a été fait il y a 47 minutes, à 16:55 UTC
Vent 4 kt de ouest/sud-ouest
Température 22°C
Humidité 38%
Pression 1017 hPa
Visibilité 10 km ou plus
pas de nuages en-dessous de 1500 mètres et pas de cumulonimbus.

METAR: LIMN 211655Z 24004KT CAVOK 22/07 Q1017 RMK SKC VIS MIN 9999 BLU

Heure: 19:42 (17:42 UTC)

Prévision

Le bulletin a été fait il y a 42 minutes, à 17:00 UTC
Prévision valable du 21 à 18 UTC au 22 à 03 UTC
Vent 3 kt de est/nord-est
Visibilité 10 km ou plus
Nuages épars à une hauteur de 8000 ft

TAF: LIMN 211700Z 2118/2203 07003KT 9999 SCT080

Observations et prévisions météorologiques de plus de 4000 aéroports (messages METAR et TAF).

Les stations disponibles sont représentées par des disques jaunes et rouges sur la carte.

Passer la souris dessus pour voir le nom de la station.

Cliquer dessus pour voir les observations et prévisions météorologiques.

Pour changer de carte: cliquez sur les boutons verts avec une croix noire pour zoomer, sur le bouton vert avec un tiret pour effectuer un zoom arrière, ou sur les flèches vertes pour les cartes adjacentes.


METAR-TAF: